sensor_id;sensor_type;location;lat;lon;timestamp;P1;durP1;ratioP1;P2;durP2;ratioP2
48522;SDS011;34315;50.150;11.070;2023-07-13T00:04:46;4.60;;;1.73;;
48522;SDS011;34315;50.150;11.070;2023-07-13T00:09:47;5.22;;;1.70;;
48522;SDS011;34315;50.150;11.070;2023-07-13T00:14:48;2.72;;;1.60;;
48522;SDS011;34315;50.150;11.070;2023-07-13T00:19:50;4.63;;;1.90;;
48522;SDS011;34315;50.150;11.070;2023-07-13T00:24:52;4.53;;;1.70;;
48522;SDS011;34315;50.150;11.070;2023-07-13T00:29:57;3.35;;;1.50;;
48522;SDS011;34315;50.150;11.070;2023-07-13T00:34:58;4.00;;;1.52;;
48522;SDS011;34315;50.150;11.070;2023-07-13T00:40:02;3.47;;;1.70;;
48522;SDS011;34315;50.150;11.070;2023-07-13T00:46:12;3.43;;;1.70;;
48522;SDS011;34315;50.150;11.070;2023-07-13T00:50:28;2.90;;;1.42;;
48522;SDS011;34315;50.150;11.070;2023-07-13T00:55:29;3.80;;;1.65;;
48522;SDS011;34315;50.150;11.070;2023-07-13T01:00:30;2.60;;;1.63;;
48522;SDS011;34315;50.150;11.070;2023-07-13T01:05:32;5.10;;;2.00;;
48522;SDS011;34315;50.150;11.070;2023-07-13T01:10:34;7.60;;;1.98;;
48522;SDS011;34315;50.150;11.070;2023-07-13T01:15:40;3.15;;;1.70;;
48522;SDS011;34315;50.150;11.070;2023-07-13T01:20:49;4.70;;;2.08;;
48522;SDS011;34315;50.150;11.070;2023-07-13T01:25:51;4.13;;;2.10;;
48522;SDS011;34315;50.150;11.070;2023-07-13T01:30:53;3.70;;;1.77;;
48522;SDS011;34315;50.150;11.070;2023-07-13T01:35:57;4.55;;;1.77;;
48522;SDS011;34315;50.150;11.070;2023-07-13T01:40:59;3.50;;;1.65;;
48522;SDS011;34315;50.150;11.070;2023-07-13T01:46:01;4.43;;;2.10;;
48522;SDS011;34315;50.150;11.070;2023-07-13T01:51:02;4.60;;;1.70;;
48522;SDS011;34315;50.150;11.070;2023-07-13T01:56:03;4.40;;;1.98;;
48522;SDS011;34315;50.150;11.070;2023-07-13T02:01:04;2.67;;;1.60;;
48522;SDS011;34315;50.150;11.070;2023-07-13T02:06:05;2.45;;;1.30;;
48522;SDS011;34315;50.150;11.070;2023-07-13T02:11:06;3.58;;;1.75;;
48522;SDS011;34315;50.150;11.070;2023-07-13T02:16:07;3.67;;;1.90;;
48522;SDS011;34315;50.150;11.070;2023-07-13T02:21:09;3.50;;;1.48;;
48522;SDS011;34315;50.150;11.070;2023-07-13T02:26:10;4.10;;;1.60;;
48522;SDS011;34315;50.150;11.070;2023-07-13T02:31:12;2.65;;;1.50;;
48522;SDS011;34315;50.150;11.070;2023-07-13T02:36:14;2.53;;;1.40;;
48522;SDS011;34315;50.150;11.070;2023-07-13T02:46:20;3.35;;;1.20;;
48522;SDS011;34315;50.150;11.070;2023-07-13T02:51:21;3.40;;;1.55;;
48522;SDS011;34315;50.150;11.070;2023-07-13T02:56:24;3.63;;;1.27;;
48522;SDS011;34315;50.150;11.070;2023-07-13T03:01:26;4.07;;;1.37;;
48522;SDS011;34315;50.150;11.070;2023-07-13T03:06:28;3.03;;;1.50;;
48522;SDS011;34315;50.150;11.070;2023-07-13T03:11:32;3.15;;;1.42;;
48522;SDS011;34315;50.150;11.070;2023-07-13T03:16:41;3.55;;;1.70;;
48522;SDS011;34315;50.150;11.070;2023-07-13T03:21:42;3.88;;;1.42;;
48522;SDS011;34315;50.150;11.070;2023-07-13T03:26:43;4.93;;;1.58;;
48522;SDS011;34315;50.150;11.070;2023-07-13T03:31:45;1.77;;;1.60;;
48522;SDS011;34315;50.150;11.070;2023-07-13T03:36:46;4.20;;;1.60;;
48522;SDS011;34315;50.150;11.070;2023-07-13T03:41:48;5.15;;;1.73;;
48522;SDS011;34315;50.150;11.070;2023-07-13T03:46:49;4.57;;;1.50;;
48522;SDS011;34315;50.150;11.070;2023-07-13T03:51:50;3.03;;;1.52;;
48522;SDS011;34315;50.150;11.070;2023-07-13T03:56:52;4.10;;;1.40;;
48522;SDS011;34315;50.150;11.070;2023-07-13T04:01:55;3.83;;;1.58;;
48522;SDS011;34315;50.150;11.070;2023-07-13T04:06:59;5.43;;;1.55;;
48522;SDS011;34315;50.150;11.070;2023-07-13T04:12:00;3.80;;;1.58;;
48522;SDS011;34315;50.150;11.070;2023-07-13T04:17:02;6.07;;;1.50;;
48522;SDS011;34315;50.150;11.070;2023-07-13T04:22:03;4.50;;;1.75;;
48522;SDS011;34315;50.150;11.070;2023-07-13T04:27:05;7.63;;;1.73;;
48522;SDS011;34315;50.150;11.070;2023-07-13T04:32:06;3.13;;;1.40;;
48522;SDS011;34315;50.150;11.070;2023-07-13T04:37:07;3.30;;;1.27;;
48522;SDS011;34315;50.150;11.070;2023-07-13T04:42:08;8.27;;;1.40;;
48522;SDS011;34315;50.150;11.070;2023-07-13T04:47:10;6.88;;;1.50;;
48522;SDS011;34315;50.150;11.070;2023-07-13T04:52:11;3.03;;;1.40;;
48522;SDS011;34315;50.150;11.070;2023-07-13T04:57:12;3.03;;;1.40;;
48522;SDS011;34315;50.150;11.070;2023-07-13T05:02:13;2.83;;;1.33;;
48522;SDS011;34315;50.150;11.070;2023-07-13T05:07:15;2.90;;;1.33;;
48522;SDS011;34315;50.150;11.070;2023-07-13T05:12:16;5.18;;;1.30;;
48522;SDS011;34315;50.150;11.070;2023-07-13T05:17:17;2.63;;;1.33;;
48522;SDS011;34315;50.150;11.070;2023-07-13T05:22:18;2.88;;;1.40;;
48522;SDS011;34315;50.150;11.070;2023-07-13T05:27:19;4.97;;;1.60;;
48522;SDS011;34315;50.150;11.070;2023-07-13T05:32:20;3.10;;;1.40;;
48522;SDS011;34315;50.150;11.070;2023-07-13T05:37:21;3.67;;;1.50;;
48522;SDS011;34315;50.150;11.070;2023-07-13T05:42:23;5.88;;;1.65;;
48522;SDS011;34315;50.150;11.070;2023-07-13T05:47:24;3.70;;;1.50;;
48522;SDS011;34315;50.150;11.070;2023-07-13T05:52:25;3.80;;;1.48;;
48522;SDS011;34315;50.150;11.070;2023-07-13T05:57:26;4.18;;;1.55;;
48522;SDS011;34315;50.150;11.070;2023-07-13T06:02:27;5.05;;;1.40;;
48522;SDS011;34315;50.150;11.070;2023-07-13T06:07:28;6.03;;;1.23;;
48522;SDS011;34315;50.150;11.070;2023-07-13T06:12:29;4.15;;;1.35;;
48522;SDS011;34315;50.150;11.070;2023-07-13T06:17:30;8.43;;;1.38;;
48522;SDS011;34315;50.150;11.070;2023-07-13T06:22:32;6.28;;;1.55;;
48522;SDS011;34315;50.150;11.070;2023-07-13T06:27:33;3.00;;;1.30;;
48522;SDS011;34315;50.150;11.070;2023-07-13T06:32:34;2.25;;;1.30;;
48522;SDS011;34315;50.150;11.070;2023-07-13T06:37:35;3.53;;;1.48;;
48522;SDS011;34315;50.150;11.070;2023-07-13T06:42:36;4.13;;;1.42;;
48522;SDS011;34315;50.150;11.070;2023-07-13T06:47:39;5.32;;;1.80;;
48522;SDS011;34315;50.150;11.070;2023-07-13T06:52:40;4.88;;;1.83;;
48522;SDS011;34315;50.150;11.070;2023-07-13T06:57:41;5.68;;;1.63;;
48522;SDS011;34315;50.150;11.070;2023-07-13T07:02:42;3.65;;;1.67;;
48522;SDS011;34315;50.150;11.070;2023-07-13T07:07:43;3.80;;;1.50;;
48522;SDS011;34315;50.150;11.070;2023-07-13T07:12:44;5.47;;;2.40;;
48522;SDS011;34315;50.150;11.070;2023-07-13T07:17:45;5.15;;;1.70;;
48522;SDS011;34315;50.150;11.070;2023-07-13T07:22:47;5.60;;;1.70;;
48522;SDS011;34315;50.150;11.070;2023-07-13T07:27:48;5.75;;;1.58;;
48522;SDS011;34315;50.150;11.070;2023-07-13T07:32:49;3.55;;;1.40;;
48522;SDS011;34315;50.150;11.070;2023-07-13T07:37:51;5.10;;;1.65;;
48522;SDS011;34315;50.150;11.070;2023-07-13T07:42:52;4.57;;;1.70;;
48522;SDS011;34315;50.150;11.070;2023-07-13T07:47:53;3.17;;;1.48;;
48522;SDS011;34315;50.150;11.070;2023-07-13T07:52:59;3.97;;;1.40;;
48522;SDS011;34315;50.150;11.070;2023-07-13T07:58:02;4.47;;;1.90;;
48522;SDS011;34315;50.150;11.070;2023-07-13T08:03:03;3.65;;;1.42;;
48522;SDS011;34315;50.150;11.070;2023-07-13T08:08:04;4.38;;;1.67;;
48522;SDS011;34315;50.150;11.070;2023-07-13T08:13:05;8.02;;;1.60;;
48522;SDS011;34315;50.150;11.070;2023-07-13T08:18:07;4.65;;;1.50;;
48522;SDS011;34315;50.150;11.070;2023-07-13T08:23:10;4.95;;;1.50;;
48522;SDS011;34315;50.150;11.070;2023-07-13T08:28:11;7.15;;;1.70;;
48522;SDS011;34315;50.150;11.070;2023-07-13T08:33:12;5.28;;;1.50;;
48522;SDS011;34315;50.150;11.070;2023-07-13T08:38:14;7.00;;;1.80;;
48522;SDS011;34315;50.150;11.070;2023-07-13T08:43:16;5.97;;;1.90;;
48522;SDS011;34315;50.150;11.070;2023-07-13T08:48:27;3.00;;;1.60;;
48522;SDS011;34315;50.150;11.070;2023-07-13T08:53:36;2.60;;;1.33;;
48522;SDS011;34315;50.150;11.070;2023-07-13T08:58:39;2.60;;;1.40;;
48522;SDS011;34315;50.150;11.070;2023-07-13T09:03:57;4.80;;;1.80;;
48522;SDS011;34315;50.150;11.070;2023-07-13T09:09:05;2.97;;;0.95;;
48522;SDS011;34315;50.150;11.070;2023-07-13T09:14:24;1.73;;;0.90;;
48522;SDS011;34315;50.150;11.070;2023-07-13T09:19:32;2.50;;;1.20;;
48522;SDS011;34315;50.150;11.070;2023-07-13T09:24:38;2.25;;;1.00;;
48522;SDS011;34315;50.150;11.070;2023-07-13T09:29:45;1.58;;;1.02;;
48522;SDS011;34315;50.150;11.070;2023-07-13T09:34:53;1.40;;;0.73;;
48522;SDS011;34315;50.150;11.070;2023-07-13T09:39:54;1.80;;;0.90;;
48522;SDS011;34315;50.150;11.070;2023-07-13T09:44:58;4.53;;;0.80;;
48522;SDS011;34315;50.150;11.070;2023-07-13T09:55:02;2.50;;;1.00;;
48522;SDS011;34315;50.150;11.070;2023-07-13T10:00:05;1.48;;;0.70;;
48522;SDS011;34315;50.150;11.070;2023-07-13T10:05:19;3.22;;;1.10;;
48522;SDS011;34315;50.150;11.070;2023-07-13T10:10:22;2.03;;;0.93;;
48522;SDS011;34315;50.150;11.070;2023-07-13T10:15:24;2.45;;;1.02;;
48522;SDS011;34315;50.150;11.070;2023-07-13T10:20:26;2.05;;;0.90;;
48522;SDS011;34315;50.150;11.070;2023-07-13T10:25:33;2.23;;;0.93;;
48522;SDS011;34315;50.150;11.070;2023-07-13T10:30:35;1.90;;;1.08;;
48522;SDS011;34315;50.150;11.070;2023-07-13T10:35:41;4.00;;;1.10;;
48522;SDS011;34315;50.150;11.070;2023-07-13T10:40:50;1.20;;;0.83;;
48522;SDS011;34315;50.150;11.070;2023-07-13T10:45:57;2.35;;;1.08;;
48522;SDS011;34315;50.150;11.070;2023-07-13T10:51:00;2.23;;;0.90;;
48522;SDS011;34315;50.150;11.070;2023-07-13T10:56:03;1.27;;;0.93;;
48522;SDS011;34315;50.150;11.070;2023-07-13T11:01:11;6.45;;;1.10;;
48522;SDS011;34315;50.150;11.070;2023-07-13T11:11:47;2.53;;;0.95;;
48522;SDS011;34315;50.150;11.070;2023-07-13T11:16:48;1.45;;;0.88;;
48522;SDS011;34315;50.150;11.070;2023-07-13T11:27:15;2.20;;;1.00;;
48522;SDS011;34315;50.150;11.070;2023-07-13T11:32:30;2.15;;;0.82;;
48522;SDS011;34315;50.150;11.070;2023-07-13T11:37:31;2.45;;;0.80;;
48522;SDS011;34315;50.150;11.070;2023-07-13T11:42:33;1.88;;;1.00;;
48522;SDS011;34315;50.150;11.070;2023-07-13T11:47:34;1.40;;;1.00;;
48522;SDS011;34315;50.150;11.070;2023-07-13T11:52:36;2.65;;;1.02;;
48522;SDS011;34315;50.150;11.070;2023-07-13T11:57:39;2.10;;;0.98;;
48522;SDS011;34315;50.150;11.070;2023-07-13T12:02:45;1.55;;;0.88;;
48522;SDS011;34315;50.150;11.070;2023-07-13T12:07:48;1.70;;;0.95;;
48522;SDS011;34315;50.150;11.070;2023-07-13T12:12:54;1.67;;;1.10;;
48522;SDS011;34315;50.150;11.070;2023-07-13T12:18:01;2.72;;;1.20;;
48522;SDS011;34315;50.150;11.070;2023-07-13T12:23:04;5.07;;;1.30;;
48522;SDS011;34315;50.150;11.070;2023-07-13T12:33:39;2.63;;;1.17;;
48522;SDS011;34315;50.150;11.070;2023-07-13T12:38:44;3.47;;;1.10;;
48522;SDS011;34315;50.150;11.070;2023-07-13T12:43:47;2.25;;;1.10;;
48522;SDS011;34315;50.150;11.070;2023-07-13T12:48:49;4.65;;;1.23;;
48522;SDS011;34315;50.150;11.070;2023-07-13T12:53:56;3.45;;;1.15;;
48522;SDS011;34315;50.150;11.070;2023-07-13T12:59:01;2.78;;;1.30;;
48522;SDS011;34315;50.150;11.070;2023-07-13T13:04:03;6.20;;;1.50;;
48522;SDS011;34315;50.150;11.070;2023-07-13T13:09:11;3.47;;;1.40;;
48522;SDS011;34315;50.150;11.070;2023-07-13T13:14:14;2.55;;;1.42;;
48522;SDS011;34315;50.150;11.070;2023-07-13T13:19:16;2.75;;;1.20;;
48522;SDS011;34315;50.150;11.070;2023-07-13T13:24:26;4.43;;;1.52;;
48522;SDS011;34315;50.150;11.070;2023-07-13T13:29:28;3.47;;;1.35;;
48522;SDS011;34315;50.150;11.070;2023-07-13T13:34:29;2.13;;;1.40;;
48522;SDS011;34315;50.150;11.070;2023-07-13T13:39:34;4.43;;;1.30;;
48522;SDS011;34315;50.150;11.070;2023-07-13T13:44:36;2.83;;;1.25;;
48522;SDS011;34315;50.150;11.070;2023-07-13T13:49:37;2.65;;;1.13;;
48522;SDS011;34315;50.150;11.070;2023-07-13T13:54:39;3.58;;;1.20;;
48522;SDS011;34315;50.150;11.070;2023-07-13T13:59:40;4.15;;;1.40;;
48522;SDS011;34315;50.150;11.070;2023-07-13T14:04:41;2.72;;;1.33;;
48522;SDS011;34315;50.150;11.070;2023-07-13T14:09:42;3.22;;;1.08;;
48522;SDS011;34315;50.150;11.070;2023-07-13T14:14:43;3.47;;;1.95;;
48522;SDS011;34315;50.150;11.070;2023-07-13T14:19:45;3.45;;;1.38;;
48522;SDS011;34315;50.150;11.070;2023-07-13T14:24:46;2.55;;;1.38;;
48522;SDS011;34315;50.150;11.070;2023-07-13T14:29:47;14.40;;;2.03;;
48522;SDS011;34315;50.150;11.070;2023-07-13T14:34:48;3.80;;;1.35;;
48522;SDS011;34315;50.150;11.070;2023-07-13T14:39:49;4.78;;;1.30;;
48522;SDS011;34315;50.150;11.070;2023-07-13T14:44:52;6.40;;;1.30;;
48522;SDS011;34315;50.150;11.070;2023-07-13T14:49:53;2.85;;;1.17;;
48522;SDS011;34315;50.150;11.070;2023-07-13T14:54:54;2.15;;;1.20;;
48522;SDS011;34315;50.150;11.070;2023-07-13T14:59:56;2.42;;;1.00;;
48522;SDS011;34315;50.150;11.070;2023-07-13T15:04:57;3.38;;;1.30;;
48522;SDS011;34315;50.150;11.070;2023-07-13T15:09:58;4.93;;;1.17;;
48522;SDS011;34315;50.150;11.070;2023-07-13T15:15:00;2.60;;;1.23;;
48522;SDS011;34315;50.150;11.070;2023-07-13T15:20:01;2.30;;;1.30;;
48522;SDS011;34315;50.150;11.070;2023-07-13T15:25:08;4.57;;;1.15;;
48522;SDS011;34315;50.150;11.070;2023-07-13T15:30:14;2.75;;;1.20;;
48522;SDS011;34315;50.150;11.070;2023-07-13T15:35:19;2.95;;;1.17;;
48522;SDS011;34315;50.150;11.070;2023-07-13T15:40:22;2.08;;;1.30;;
48522;SDS011;34315;50.150;11.070;2023-07-13T15:45:25;5.68;;;1.10;;
48522;SDS011;34315;50.150;11.070;2023-07-13T15:50:26;3.05;;;1.17;;
48522;SDS011;34315;50.150;11.070;2023-07-13T15:55:32;3.67;;;1.30;;
48522;SDS011;34315;50.150;11.070;2023-07-13T16:00:33;4.10;;;1.40;;
48522;SDS011;34315;50.150;11.070;2023-07-13T16:05:35;2.10;;;1.00;;
48522;SDS011;34315;50.150;11.070;2023-07-13T16:10:37;2.78;;;1.40;;
48522;SDS011;34315;50.150;11.070;2023-07-13T16:15:41;2.05;;;1.30;;
48522;SDS011;34315;50.150;11.070;2023-07-13T16:20:45;2.22;;;1.05;;
48522;SDS011;34315;50.150;11.070;2023-07-13T16:25:47;2.08;;;1.20;;
48522;SDS011;34315;50.150;11.070;2023-07-13T16:30:49;3.53;;;1.40;;
48522;SDS011;34315;50.150;11.070;2023-07-13T16:35:51;2.17;;;1.20;;
48522;SDS011;34315;50.150;11.070;2023-07-13T16:40:53;1.73;;;1.10;;
48522;SDS011;34315;50.150;11.070;2023-07-13T16:45:55;2.17;;;1.30;;
48522;SDS011;34315;50.150;11.070;2023-07-13T16:50:59;2.35;;;1.20;;
48522;SDS011;34315;50.150;11.070;2023-07-13T16:56:01;6.68;;;1.70;;
48522;SDS011;34315;50.150;11.070;2023-07-13T17:01:07;2.83;;;1.30;;
48522;SDS011;34315;50.150;11.070;2023-07-13T17:06:19;1.90;;;1.30;;
48522;SDS011;34315;50.150;11.070;2023-07-13T17:11:24;3.30;;;1.33;;
48522;SDS011;34315;50.150;11.070;2023-07-13T17:16:27;3.40;;;1.55;;
48522;SDS011;34315;50.150;11.070;2023-07-13T17:21:28;1.58;;;1.20;;
48522;SDS011;34315;50.150;11.070;2023-07-13T17:26:29;2.67;;;1.10;;
48522;SDS011;34315;50.150;11.070;2023-07-13T17:31:30;3.58;;;1.35;;
48522;SDS011;34315;50.150;11.070;2023-07-13T17:36:31;5.03;;;1.70;;
48522;SDS011;34315;50.150;11.070;2023-07-13T17:41:34;1.85;;;1.15;;
48522;SDS011;34315;50.150;11.070;2023-07-13T17:46:35;2.17;;;1.05;;
48522;SDS011;34315;50.150;11.070;2023-07-13T17:51:37;3.22;;;1.38;;
48522;SDS011;34315;50.150;11.070;2023-07-13T17:56:38;3.00;;;1.40;;
48522;SDS011;34315;50.150;11.070;2023-07-13T18:01:39;3.15;;;1.48;;
48522;SDS011;34315;50.150;11.070;2023-07-13T18:06:42;2.90;;;1.42;;
48522;SDS011;34315;50.150;11.070;2023-07-13T18:11:53;2.67;;;1.40;;
48522;SDS011;34315;50.150;11.070;2023-07-13T18:16:56;3.38;;;1.60;;
48522;SDS011;34315;50.150;11.070;2023-07-13T18:22:02;3.78;;;1.52;;
48522;SDS011;34315;50.150;11.070;2023-07-13T18:27:10;3.58;;;1.40;;
48522;SDS011;34315;50.150;11.070;2023-07-13T18:32:15;6.85;;;1.70;;
48522;SDS011;34315;50.150;11.070;2023-07-13T18:37:20;3.92;;;1.48;;
48522;SDS011;34315;50.150;11.070;2023-07-13T18:42:23;4.20;;;1.60;;
48522;SDS011;34315;50.150;11.070;2023-07-13T18:47:25;2.55;;;1.35;;
48522;SDS011;34315;50.150;11.070;2023-07-13T18:52:29;6.45;;;1.70;;
48522;SDS011;34315;50.150;11.070;2023-07-13T18:57:31;5.47;;;1.73;;
48522;SDS011;34315;50.150;11.070;2023-07-13T19:02:32;3.33;;;1.63;;
48522;SDS011;34315;50.150;11.070;2023-07-13T19:07:33;3.20;;;1.42;;
48522;SDS011;34315;50.150;11.070;2023-07-13T19:12:34;3.78;;;1.30;;
48522;SDS011;34315;50.150;11.070;2023-07-13T19:17:36;2.83;;;1.55;;
48522;SDS011;34315;50.150;11.070;2023-07-13T19:22:37;6.93;;;2.63;;
48522;SDS011;34315;50.150;11.070;2023-07-13T19:27:38;4.43;;;2.35;;
48522;SDS011;34315;50.150;11.070;2023-07-13T19:32:40;4.72;;;1.60;;
48522;SDS011;34315;50.150;11.070;2023-07-13T19:37:41;4.10;;;1.50;;
48522;SDS011;34315;50.150;11.070;2023-07-13T19:42:43;4.30;;;1.45;;
48522;SDS011;34315;50.150;11.070;2023-07-13T19:47:44;5.90;;;1.70;;
48522;SDS011;34315;50.150;11.070;2023-07-13T19:52:47;4.82;;;1.80;;
48522;SDS011;34315;50.150;11.070;2023-07-13T19:57:49;6.80;;;1.50;;
48522;SDS011;34315;50.150;11.070;2023-07-13T20:02:50;2.95;;;1.60;;
48522;SDS011;34315;50.150;11.070;2023-07-13T20:07:56;8.32;;;1.80;;
48522;SDS011;34315;50.150;11.070;2023-07-13T20:12:58;5.05;;;1.70;;
48522;SDS011;34315;50.150;11.070;2023-07-13T20:18:00;3.85;;;1.45;;
48522;SDS011;34315;50.150;11.070;2023-07-13T20:23:04;5.13;;;1.52;;
48522;SDS011;34315;50.150;11.070;2023-07-13T20:28:11;3.80;;;1.60;;
48522;SDS011;34315;50.150;11.070;2023-07-13T20:33:22;3.20;;;1.60;;
48522;SDS011;34315;50.150;11.070;2023-07-13T20:38:25;4.00;;;1.60;;
48522;SDS011;34315;50.150;11.070;2023-07-13T20:43:26;3.85;;;1.50;;
48522;SDS011;34315;50.150;11.070;2023-07-13T20:53:34;2.53;;;1.40;;
48522;SDS011;34315;50.150;11.070;2023-07-13T20:58:35;2.80;;;1.50;;
48522;SDS011;34315;50.150;11.070;2023-07-13T21:03:36;4.10;;;1.38;;
48522;SDS011;34315;50.150;11.070;2023-07-13T21:08:37;4.20;;;1.30;;
48522;SDS011;34315;50.150;11.070;2023-07-13T21:13:38;4.40;;;1.60;;
48522;SDS011;34315;50.150;11.070;2023-07-13T21:18:40;4.07;;;1.77;;
48522;SDS011;34315;50.150;11.070;2023-07-13T21:23:41;10.57;;;3.97;;
48522;SDS011;34315;50.150;11.070;2023-07-13T21:28:43;11.90;;;4.60;;
48522;SDS011;34315;50.150;11.070;2023-07-13T21:33:45;5.88;;;2.47;;
48522;SDS011;34315;50.150;11.070;2023-07-13T21:38:48;3.95;;;1.85;;
48522;SDS011;34315;50.150;11.070;2023-07-13T21:43:57;3.30;;;1.50;;
48522;SDS011;34315;50.150;11.070;2023-07-13T21:48:58;4.38;;;1.70;;
48522;SDS011;34315;50.150;11.070;2023-07-13T21:53:59;5.78;;;1.90;;
48522;SDS011;34315;50.150;11.070;2023-07-13T21:59:00;5.95;;;2.67;;
48522;SDS011;34315;50.150;11.070;2023-07-13T22:04:01;3.03;;;1.58;;
48522;SDS011;34315;50.150;11.070;2023-07-13T22:09:05;6.22;;;2.58;;
48522;SDS011;34315;50.150;11.070;2023-07-13T22:14:09;3.42;;;1.83;;
48522;SDS011;34315;50.150;11.070;2023-07-13T22:19:12;6.32;;;1.73;;
48522;SDS011;34315;50.150;11.070;2023-07-13T22:24:15;2.87;;;1.70;;
48522;SDS011;34315;50.150;11.070;2023-07-13T22:29:21;7.63;;;2.20;;
48522;SDS011;34315;50.150;11.070;2023-07-13T22:34:24;5.80;;;1.77;;
48522;SDS011;34315;50.150;11.070;2023-07-13T22:39:30;3.63;;;1.50;;
48522;SDS011;34315;50.150;11.070;2023-07-13T22:44:32;3.70;;;1.77;;
48522;SDS011;34315;50.150;11.070;2023-07-13T22:49:34;2.30;;;1.40;;
48522;SDS011;34315;50.150;11.070;2023-07-13T22:54:36;5.32;;;1.73;;
48522;SDS011;34315;50.150;11.070;2023-07-13T22:59:37;4.68;;;1.60;;
48522;SDS011;34315;50.150;11.070;2023-07-13T23:04:38;4.20;;;1.70;;
48522;SDS011;34315;50.150;11.070;2023-07-13T23:09:39;4.15;;;1.40;;
48522;SDS011;34315;50.150;11.070;2023-07-13T23:14:42;3.33;;;1.70;;
48522;SDS011;34315;50.150;11.070;2023-07-13T23:19:44;4.82;;;1.77;;
48522;SDS011;34315;50.150;11.070;2023-07-13T23:24:45;3.65;;;1.80;;
48522;SDS011;34315;50.150;11.070;2023-07-13T23:29:46;4.07;;;1.77;;
48522;SDS011;34315;50.150;11.070;2023-07-13T23:34:48;4.60;;;1.77;;
48522;SDS011;34315;50.150;11.070;2023-07-13T23:39:49;3.72;;;1.63;;
48522;SDS011;34315;50.150;11.070;2023-07-13T23:44:50;4.35;;;1.88;;
48522;SDS011;34315;50.150;11.070;2023-07-13T23:49:51;4.38;;;1.77;;
48522;SDS011;34315;50.150;11.070;2023-07-13T23:54:56;6.68;;;1.80;;
48522;SDS011;34315;50.150;11.070;2023-07-13T23:59:57;4.68;;;1.98;;
